Time;durP1;ratioP1;P1;durP2;ratioP2;P2;SDS_P1;SDS_P2;PMS_P1;PMS_P2;Temp;Humidity;BMP_temperature;BMP_pressure;BME280_temperature;BME280_humidity;BME280_pressure;Samples;Min_cycle;Max_cycle;Signal;HPM_P1;HPM_P2
2023/09/16 00:02:24;;;;;;;8.70;6.90;;;16.60;99.90;;;;;;6149771;23;20005;-79
2023/09/16 00:04:51;;;;;;;8.70;7.70;;;16.60;99.90;;;;;;6151677;23;20073;-80
2023/09/16 00:07:17;;;;;;;11.93;7.80;;;16.60;99.90;;;;;;6151941;23;20049;-80
2023/09/16 00:09:43;;;;;;;9.95;7.75;;;16.60;99.90;;;;;;6151379;23;20006;-79
2023/09/16 00:12:09;;;;;;;10.02;7.88;;;16.60;99.90;;;;;;6152143;23;20037;-79
2023/09/16 00:14:36;;;;;;;9.57;7.38;;;16.60;99.90;;;;;;6152138;23;20032;-80
2023/09/16 00:17:03;;;;;;;7.75;6.55;;;16.50;99.90;;;;;;6152336;23;20002;-79
2023/09/16 00:19:29;;;;;;;10.23;8.13;;;16.50;99.90;;;;;;6126622;23;20340;-79
2023/09/16 00:21:56;;;;;;;11.32;8.52;;;16.50;99.90;;;;;;6151487;23;19997;-79
2023/09/16 00:24:22;;;;;;;11.32;7.53;;;16.50;99.90;;;;;;6152019;23;20379;-79
2023/09/16 00:26:47;;;;;;;8.55;7.55;;;16.50;99.90;;;;;;6153017;23;20009;-79
2023/09/16 00:29:13;;;;;;;12.35;8.88;;;16.40;99.90;;;;;;6125471;23;20492;-80
2023/09/16 00:31:38;;;;;;;13.32;8.93;;;16.40;99.90;;;;;;6126491;23;20344;-79
2023/09/16 00:34:04;;;;;;;9.15;7.70;;;16.40;99.90;;;;;;6152011;23;20006;-79
2023/09/16 00:36:30;;;;;;;8.95;8.05;;;16.40;99.90;;;;;;6152826;23;20447;-80
2023/09/16 00:38:55;;;;;;;9.82;7.30;;;16.50;99.90;;;;;;6126209;23;20008;-80
2023/09/16 00:41:21;;;;;;;8.05;7.35;;;16.40;99.90;;;;;;6151904;23;20529;-79
2023/09/16 00:43:46;;;;;;;8.95;6.88;;;16.40;99.90;;;;;;6127004;23;20029;-79
2023/09/16 00:46:12;;;;;;;8.85;7.80;;;16.40;99.90;;;;;;6151889;23;20044;-80
2023/09/16 00:48:39;;;;;;;10.13;6.97;;;16.40;99.90;;;;;;6152557;23;20487;-79
2023/09/16 00:51:06;;;;;;;8.98;7.30;;;16.50;99.90;;;;;;6151916;23;20008;-79
2023/09/16 00:53:33;;;;;;;10.93;7.78;;;16.40;99.90;;;;;;6150874;23;20005;-79
2023/09/16 00:55:59;;;;;;;8.38;7.53;;;16.40;99.90;;;;;;6152163;23;20331;-79
2023/09/16 00:58:25;;;;;;;11.15;7.43;;;16.50;99.90;;;;;;6151304;23;20001;-79
2023/09/16 01:00:52;;;;;;;8.35;7.55;;;16.40;99.90;;;;;;6152309;23;20029;-78
2023/09/16 01:03:18;;;;;;;6.75;6.03;;;16.40;99.90;;;;;;6152048;23;20011;-79
2023/09/16 01:05:47;;;;;;;8.63;6.80;;;16.40;99.90;;;;;;6152510;23;20432;-79
2023/09/16 01:08:13;;;;;;;9.13;7.50;;;16.40;99.90;;;;;;6151579;23;20352;-79
2023/09/16 01:10:41;;;;;;;9.02;7.25;;;16.40;99.90;;;;;;6152216;23;20013;-80
2023/09/16 01:13:08;;;;;;;10.27;9.10;;;16.40;99.90;;;;;;6151154;23;20009;-79
2023/09/16 01:15:39;;;;;;;8.93;7.97;;;16.40;99.90;;;;;;6152509;23;20025;-79
2023/09/16 01:18:24;;;;;;;7.75;6.82;;;16.40;99.90;;;;;;6151483;23;20080;-79
2023/09/16 01:20:51;;;;;;;10.13;8.60;;;16.40;99.90;;;;;;6152277;23;20435;-80
2023/09/16 01:23:20;;;;;;;8.45;7.28;;;16.30;99.90;;;;;;6151256;23;20029;-79
2023/09/16 01:25:45;;;;;;;10.98;9.15;;;16.30;99.90;;;;;;6152144;23;20053;-79
2023/09/16 01:28:11;;;;;;;9.25;8.35;;;16.30;99.90;;;;;;6150846;23;20002;-79
2023/09/16 01:30:39;;;;;;;10.65;9.57;;;16.30;99.90;;;;;;6152027;23;20005;-79
2023/09/16 01:33:17;;;;;;;8.48;7.68;;;16.30;99.90;;;;;;6149553;23;20013;-79
2023/09/16 01:35:47;;;;;;;13.32;9.20;;;16.30;99.90;;;;;;6150335;23;20006;-80
2023/09/16 01:38:15;;;;;;;13.50;9.88;;;16.30;99.90;;;;;;6149650;23;20042;-79
2023/09/16 01:40:43;;;;;;;11.35;8.60;;;16.30;99.90;;;;;;6151860;23;20005;-80
2023/09/16 01:43:09;;;;;;;10.73;9.60;;;16.20;99.90;;;;;;6150648;23;20021;-80
2023/09/16 01:45:43;;;;;;;12.88;10.18;;;16.20;99.90;;;;;;6151554;23;20013;-79
2023/09/16 01:48:09;;;;;;;;;;;16.20;99.90;;;;;;6151639;23;20065;-79
2023/09/16 01:50:35;;;;;;;11.95;10.40;;;16.10;99.90;;;;;;6125688;23;19900;-79
2023/09/16 01:53:01;;;;;;;11.98;10.77;;;16.10;99.90;;;;;;6151287;23;20428;-79
2023/09/16 01:55:27;;;;;;;13.07;10.90;;;16.20;99.90;;;;;;6124460;23;20029;-80
2023/09/16 01:57:53;;;;;;;10.13;8.40;;;16.20;99.90;;;;;;6151807;23;20069;-80
2023/09/16 02:00:18;;;;;;;11.73;10.52;;;16.20;99.90;;;;;;6151055;23;20057;-79
2023/09/16 02:02:44;;;;;;;10.80;9.70;;;16.20;99.90;;;;;;6151868;23;20014;-79
2023/09/16 02:05:10;;;;;;;11.43;10.30;;;16.20;99.90;;;;;;6150789;23;20112;-79
2023/09/16 02:07:36;;;;;;;11.70;10.50;;;16.20;99.90;;;;;;6125463;23;20002;-79
2023/09/16 02:10:03;;;;;;;11.50;10.38;;;16.20;99.90;;;;;;6150950;23;20008;-79
2023/09/16 02:12:28;;;;;;;16.52;11.05;;;16.10;99.90;;;;;;6151874;23;20005;-80
2023/09/16 02:14:54;;;;;;;11.65;10.45;;;16.20;99.90;;;;;;6151487;23;20072;-80
2023/09/16 02:17:20;;;;;;;11.57;10.30;;;16.10;99.90;;;;;;6125005;23;19998;-79
2023/09/16 02:19:46;;;;;;;9.90;9.00;;;16.10;99.90;;;;;;6151442;23;20008;-80
2023/09/16 02:22:11;;;;;;;11.55;10.35;;;16.10;99.90;;;;;;6124652;23;20001;-79
2023/09/16 02:24:37;;;;;;;10.55;9.45;;;16.10;99.90;;;;;;6151039;23;20005;-79
2023/09/16 02:27:04;;;;;;;12.85;11.35;;;16.00;99.90;;;;;;6151293;23;20040;-79
2023/09/16 02:29:32;;;;;;;13.02;10.57;;;16.00;99.90;;;;;;6125145;23;20015;-79
2023/09/16 02:31:57;;;;;;;12.60;10.55;;;16.00;99.90;;;;;;6151732;23;20044;-79
2023/09/16 02:34:23;;;;;;;13.23;10.77;;;16.00;99.90;;;;;;6150711;23;20009;-79
2023/09/16 02:36:48;;;;;;;11.20;10.15;;;15.90;99.90;;;;;;6151797;23;20072;-80
2023/09/16 02:39:14;;;;;;;12.27;10.95;;;15.90;99.90;;;;;;6150431;23;20133;-79
2023/09/16 02:41:39;;;;;;;15.75;10.90;;;15.90;99.90;;;;;;6151508;23;20006;-79
2023/09/16 02:44:07;;;;;;;10.82;9.68;;;15.90;99.90;;;;;;6150855;23;20025;-79
2023/09/16 02:46:32;;;;;;;11.80;10.52;;;15.90;99.90;;;;;;6151365;23;20008;-79
2023/09/16 02:48:58;;;;;;;11.73;10.52;;;15.90;99.90;;;;;;6125210;23;20605;-79
2023/09/16 02:51:23;;;;;;;14.63;11.63;;;15.90;99.90;;;;;;6150845;23;20069;-80
2023/09/16 02:53:49;;;;;;;11.95;10.73;;;15.90;99.90;;;;;;6150984;23;20044;-79
2023/09/16 02:56:14;;;;;;;14.70;13.15;;;15.80;99.90;;;;;;6124936;23;20012;-80
2023/09/16 02:58:40;;;;;;;14.18;11.57;;;15.80;99.90;;;;;;6151138;23;20002;-80
2023/09/16 03:01:11;;;;;;;14.38;12.50;;;15.80;99.90;;;;;;6151180;23;20001;-80
2023/09/16 03:03:37;;;;;;;13.60;12.30;;;15.80;99.90;;;;;;6150824;23;20077;-79
2023/09/16 03:06:03;;;;;;;13.57;11.70;;;15.80;99.90;;;;;;6124601;23;20037;-80
2023/09/16 03:08:29;;;;;;;13.75;12.40;;;15.70;99.90;;;;;;6124316;23;20014;-79
2023/09/16 03:11:03;;;;;;;14.13;12.63;;;15.80;99.90;;;;;;6151395;23;20424;-80
2023/09/16 03:13:29;;;;;;;15.25;13.57;;;15.80;99.90;;;;;;6151035;23;20005;-79
2023/09/16 03:16:13;;;;;;;14.52;13.00;;;15.80;99.90;;;;;;6151296;23;20439;-79
2023/09/16 03:18:41;;;;;;;15.18;13.40;;;15.80;99.90;;;;;;6151080;23;20431;-80
2023/09/16 03:21:07;;;;;;;14.95;13.13;;;15.70;99.90;;;;;;6150670;23;20025;-79
2023/09/16 03:23:33;;;;;;;14.25;12.85;;;15.80;99.90;;;;;;6150713;23;20423;-80
2023/09/16 03:25:58;;;;;;;13.82;11.98;;;15.80;99.90;;;;;;6150939;23;20006;-79
2023/09/16 03:28:24;;;;;;;13.23;11.40;;;15.80;99.90;;;;;;6150827;23;20002;-79
2023/09/16 03:30:49;;;;;;;13.85;12.43;;;15.80;99.90;;;;;;6124197;23;20033;-79
2023/09/16 03:33:15;;;;;;;14.05;12.68;;;15.80;99.90;;;;;;6150697;23;20439;-80
2023/09/16 03:35:41;;;;;;;14.13;12.63;;;15.80;99.90;;;;;;6150828;23;20033;-80
2023/09/16 03:38:06;;;;;;;12.90;11.55;;;15.70;99.90;;;;;;6124069;23;20016;-79
2023/09/16 03:40:33;;;;;;;14.30;12.65;;;15.70;99.90;;;;;;6151074;23;20005;-79
2023/09/16 03:42:58;;;;;;;14.07;12.80;;;15.70;99.90;;;;;;6151160;23;20013;-79
2023/09/16 03:45:24;;;;;;;16.15;14.55;;;15.70;99.90;;;;;;6150340;23;20309;-79
2023/09/16 03:47:49;;;;;;;16.17;14.57;;;15.60;99.90;;;;;;6124642;23;20344;-79
2023/09/16 03:50:15;;;;;;;15.75;13.95;;;15.60;99.90;;;;;;6150565;23;20001;-79
2023/09/16 03:52:40;;;;;;;15.82;14.25;;;15.70;99.90;;;;;;6150296;23;20001;-79
2023/09/16 03:55:06;;;;;;;15.38;13.68;;;15.60;99.90;;;;;;6150570;23;20008;-79
2023/09/16 03:57:32;;;;;;;17.45;15.65;;;15.70;99.90;;;;;;6150602;23;20431;-79
2023/09/16 03:59:57;;;;;;;17.65;15.85;;;15.70;99.90;;;;;;6149553;23;20057;-79
2023/09/16 04:02:23;;;;;;;15.18;13.68;;;15.60;99.90;;;;;;6149648;23;20001;-79
2023/09/16 04:04:48;;;;;;;17.38;15.45;;;15.60;99.90;;;;;;6150229;23;20080;-80
2023/09/16 04:07:14;;;;;;;16.67;15.10;;;15.60;99.90;;;;;;6150316;23;20451;-79
2023/09/16 04:09:39;;;;;;;16.48;14.70;;;15.60;99.90;;;;;;6150998;23;20073;-80
2023/09/16 04:12:05;;;;;;;17.70;15.77;;;15.60;99.90;;;;;;6124098;23;20758;-80
2023/09/16 04:14:31;;;;;;;16.17;14.48;;;15.60;99.90;;;;;;6150864;23;20084;-79
2023/09/16 04:16:56;;;;;;;16.92;14.77;;;15.60;99.90;;;;;;6124710;23;20104;-80
2023/09/16 04:19:22;;;;;;;16.13;14.27;;;15.60;99.90;;;;;;6123154;23;20419;-79
2023/09/16 04:21:47;;;;;;;22.13;19.90;;;15.60;99.90;;;;;;6125684;23;20075;-79
2023/09/16 04:24:13;;;;;;;20.20;18.02;;;15.60;99.90;;;;;;6150566;23;20029;-79
2023/09/16 04:26:39;;;;;;;17.75;15.85;;;15.60;99.90;;;;;;6152193;23;20016;-79
2023/09/16 04:29:04;;;;;;;20.20;18.13;;;15.50;99.90;;;;;;6152215;23;20132;-79
2023/09/16 04:31:30;;;;;;;17.13;15.50;;;15.50;99.90;;;;;;6152748;23;20076;-79
2023/09/16 04:33:55;;;;;;;17.88;16.15;;;15.50;99.90;;;;;;6152511;23;20006;-78
2023/09/16 04:36:22;;;;;;;16.35;14.68;;;15.50;99.90;;;;;;6151775;23;20479;-79
2023/09/16 04:38:48;;;;;;;18.75;16.88;;;15.50;99.90;;;;;;6152759;23;20424;-79
2023/09/16 04:41:14;;;;;;;20.48;17.65;;;15.50;99.90;;;;;;6151953;23;20001;-79
2023/09/16 04:43:40;;;;;;;18.77;16.88;;;15.50;99.90;;;;;;6152590;23;20096;-78
2023/09/16 04:46:06;;;;;;;18.80;16.90;;;15.40;99.90;;;;;;6151949;23;20332;-80
2023/09/16 04:48:32;;;;;;;20.27;18.17;;;15.40;99.90;;;;;;6152601;23;20021;-79
2023/09/16 04:50:57;;;;;;;19.63;17.63;;;15.40;99.90;;;;;;6151955;23;20004;-79
2023/09/16 04:53:23;;;;;;;18.58;16.63;;;15.40;99.90;;;;;;6151646;23;20017;-78
2023/09/16 04:55:48;;;;;;;21.92;19.48;;;15.40;99.90;;;;;;6152168;23;20709;-79
2023/09/16 04:58:14;;;;;;;19.92;18.05;;;15.40;99.90;;;;;;6151828;23;20072;-79
2023/09/16 05:00:41;;;;;;;16.95;15.35;;;15.40;99.90;;;;;;6126129;23;20420;-79
2023/09/16 05:03:07;;;;;;;18.85;16.88;;;15.40;99.90;;;;;;6151870;23;20076;-79
2023/09/16 05:05:33;;;;;;;21.05;19.00;;;15.40;99.90;;;;;;6151881;23;20029;-79
2023/09/16 05:07:59;;;;;;;19.70;17.83;;;15.40;99.90;;;;;;6126062;23;20392;-79
2023/09/16 05:10:24;;;;;;;21.77;19.48;;;15.40;99.90;;;;;;6125290;23;20009;-79
2023/09/16 05:12:50;;;;;;;23.42;21.05;;;15.40;99.90;;;;;;6151936;23;19998;-78
2023/09/16 05:15:15;;;;;;;18.40;16.70;;;15.40;99.90;;;;;;6151619;23;20412;-80
2023/09/16 05:17:41;;;;;;;22.67;20.35;;;15.40;99.90;;;;;;6152405;23;20455;-79
2023/09/16 05:20:10;;;;;;;22.52;20.30;;;15.40;99.90;;;;;;6151344;23;20072;-79
2023/09/16 05:22:35;;;;;;;19.35;17.45;;;15.40;99.90;;;;;;6152299;23;20028;-79
2023/09/16 05:25:04;;;;;;;23.17;20.95;;;15.40;99.90;;;;;;6152224;23;20001;-79
2023/09/16 05:27:30;;;;;;;20.20;18.25;;;15.40;99.90;;;;;;6151787;23;20013;-79
2023/09/16 05:29:56;;;;;;;23.95;21.52;;;15.40;99.90;;;;;;6152348;23;20002;-79
2023/09/16 05:32:22;;;;;;;23.08;20.20;;;15.40;99.90;;;;;;6151453;23;20440;-79
2023/09/16 05:34:47;;;;;;;25.65;23.00;;;15.40;99.90;;;;;;6124999;23;20013;-79
2023/09/16 05:37:13;;;;;;;22.83;20.48;;;15.40;99.90;;;;;;6125221;23;20601;-79
2023/09/16 05:39:39;;;;;;;21.80;19.70;;;15.40;99.90;;;;;;6152030;23;20076;-79
2023/09/16 05:42:05;;;;;;;22.10;19.88;;;15.40;99.90;;;;;;6125321;23;20076;-79
2023/09/16 05:44:30;;;;;;;19.52;17.73;;;15.40;99.90;;;;;;6151708;23;20013;-79
2023/09/16 05:46:56;;;;;;;20.02;18.05;;;15.50;99.90;;;;;;6125835;23;20739;-79
2023/09/16 05:49:21;;;;;;;21.20;19.17;;;15.50;99.90;;;;;;6124448;23;20010;-79
2023/09/16 05:51:47;;;;;;;19.85;17.85;;;15.50;99.90;;;;;;6125695;23;20009;-79
2023/09/16 05:54:14;;;;;;;23.13;20.15;;;15.50;99.90;;;;;;6151459;23;20005;-80
2023/09/16 05:56:42;;;;;;;22.33;18.63;;;15.50;99.90;;;;;;6125434;23;20005;-79
2023/09/16 05:59:08;;;;;;;22.95;20.52;;;15.50;99.90;;;;;;6125416;23;20077;-79
2023/09/16 06:01:34;;;;;;;22.80;20.50;;;15.50;99.90;;;;;;6151373;23;20032;-79
2023/09/16 06:04:00;;;;;;;22.85;20.55;;;15.50;99.90;;;;;;6151269;23;20060;-79
2023/09/16 06:06:25;;;;;;;21.00;18.80;;;15.50;99.90;;;;;;6150635;23;20009;-80
2023/09/16 06:08:51;;;;;;;21.63;19.73;;;15.60;99.90;;;;;;6151830;23;20001;-79
2023/09/16 06:11:16;;;;;;;20.42;18.23;;;15.50;99.90;;;;;;6124999;23;20292;-79
2023/09/16 06:13:42;;;;;;;20.65;18.48;;;15.60;99.90;;;;;;6151595;23;20440;-79
2023/09/16 06:16:08;;;;;;;17.67;15.88;;;15.70;99.90;;;;;;6151016;23;20308;-79
2023/09/16 06:18:35;;;;;;;19.75;17.83;;;15.70;99.90;;;;;;6124798;23;20088;-80
2023/09/16 06:21:01;;;;;;;23.45;20.95;;;15.70;99.90;;;;;;6125698;23;20002;-79
2023/09/16 06:23:27;;;;;;;22.95;20.85;;;15.80;99.90;;;;;;6151271;23;20009;-80
2023/09/16 06:25:53;;;;;;;19.92;17.83;;;15.80;99.90;;;;;;6125003;23;20084;-79
2023/09/16 06:28:18;;;;;;;19.83;18.02;;;15.90;99.90;;;;;;6151585;23;20005;-79
2023/09/16 06:30:44;;;;;;;21.15;19.00;;;15.90;99.90;;;;;;6124990;23;20006;-80
2023/09/16 06:33:10;;;;;;;21.83;19.63;;;15.90;99.90;;;;;;6124336;23;20006;-80
2023/09/16 06:35:35;;;;;;;21.95;19.80;;;16.00;99.90;;;;;;6125321;23;20005;-80
2023/09/16 06:38:01;;;;;;;20.67;18.58;;;16.00;99.90;;;;;;6151799;23;20029;-80
2023/09/16 06:40:27;;;;;;;20.50;18.45;;;16.00;99.90;;;;;;6151053;23;20462;-80
2023/09/16 06:42:52;;;;;;;22.48;20.45;;;16.10;99.90;;;;;;6151176;23;20001;-81
2023/09/16 06:45:18;;;;;;;20.88;18.70;;;16.10;99.90;;;;;;6149305;23;20021;-81
2023/09/16 06:47:44;;;;;;;20.00;18.10;;;16.10;99.90;;;;;;6180987;23;20009;-81
2023/09/16 06:50:10;;;;;;;19.33;17.42;;;16.20;99.90;;;;;;6154213;23;20001;-81
2023/09/16 06:52:36;;;;;;;18.83;17.13;;;16.30;99.90;;;;;;6154880;23;20005;-81
2023/09/16 06:55:03;;;;;;;17.65;15.95;;;16.30;99.90;;;;;;6177040;23;20005;-81
2023/09/16 06:57:28;;;;;;;18.50;16.70;;;16.30;99.90;;;;;;6174875;23;19997;-80
2023/09/16 06:59:54;;;;;;;19.73;17.77;;;16.40;99.90;;;;;;6176686;23;20032;-80
2023/09/16 07:02:22;;;;;;;17.17;15.50;;;16.50;99.90;;;;;;6176042;23;20001;-80
2023/09/16 07:04:47;;;;;;;19.67;17.65;;;16.50;99.90;;;;;;6153397;23;20391;-78
2023/09/16 07:07:13;;;;;;;17.48;15.68;;;16.50;99.90;;;;;;6153662;23;20005;-78
2023/09/16 07:09:39;;;;;;;17.75;15.65;;;16.60;99.90;;;;;;6154452;23;20449;-78
2023/09/16 07:12:06;;;;;;;17.27;15.68;;;16.60;99.90;;;;;;6180718;23;20454;-81
2023/09/16 07:14:35;;;;;;;16.50;14.80;;;16.70;99.90;;;;;;6180467;23;20005;-80
2023/09/16 07:17:01;;;;;;;18.55;16.85;;;16.80;99.90;;;;;;6180730;23;20001;-80
2023/09/16 07:19:27;;;;;;;18.27;16.48;;;16.90;99.90;;;;;;6154206;23;20010;-79
2023/09/16 07:21:52;;;;;;;16.27;14.75;;;16.90;99.90;;;;;;6180785;23;20420;-79
2023/09/16 07:24:18;;;;;;;17.02;15.32;;;17.00;99.90;;;;;;6154147;23;20012;-79
2023/09/16 07:26:44;;;;;;;17.23;15.55;;;17.10;99.90;;;;;;6154725;23;20016;-79
2023/09/16 07:29:10;;;;;;;15.35;13.93;;;17.20;99.90;;;;;;6153378;23;20091;-79
2023/09/16 07:31:36;;;;;;;13.73;12.48;;;17.30;99.90;;;;;;6181183;23;20001;-79
2023/09/16 07:34:02;;;;;;;15.00;13.55;;;17.30;99.90;;;;;;6180397;23;20016;-80
2023/09/16 07:36:27;;;;;;;14.68;13.27;;;17.40;99.90;;;;;;6180657;23;20301;-80
2023/09/16 07:38:53;;;;;;;15.52;13.93;;;17.50;99.90;;;;;;6154391;23;20336;-79
2023/09/16 07:41:18;;;;;;;15.35;13.95;;;17.60;99.90;;;;;;6180632;23;20107;-79
2023/09/16 07:43:44;;;;;;;13.20;12.02;;;17.70;99.90;;;;;;6153745;23;20017;-79
2023/09/16 07:46:09;;;;;;;13.18;11.95;;;17.80;99.90;;;;;;6180367;23;20739;-79
2023/09/16 07:48:35;;;;;;;14.27;12.88;;;17.80;99.90;;;;;;6154854;23;20005;-79
2023/09/16 07:51:01;;;;;;;12.65;11.48;;;17.90;99.90;;;;;;6180753;23;20043;-79
2023/09/16 07:53:26;;;;;;;12.93;11.63;;;18.00;99.90;;;;;;6155711;23;20432;-79
2023/09/16 07:55:52;;;;;;;14.93;12.25;;;18.10;99.90;;;;;;6182956;23;19997;-80
2023/09/16 07:58:18;;;;;;;14.25;12.85;;;18.20;99.90;;;;;;6155274;23;20080;-79
2023/09/16 08:00:43;;;;;;;12.13;10.93;;;18.20;99.90;;;;;;6156640;23;20009;-79
2023/09/16 08:03:09;;;;;;;14.40;13.10;;;18.30;99.90;;;;;;6155467;23;20041;-80
2023/09/16 08:05:34;;;;;;;11.50;10.30;;;18.30;99.90;;;;;;6182652;23;20001;-79
2023/09/16 08:08:01;;;;;;;13.23;11.50;;;18.40;99.90;;;;;;6182389;23;20032;-79
2023/09/16 08:10:27;;;;;;;12.43;11.23;;;18.50;99.90;;;;;;6182619;23;20027;-79
2023/09/16 08:12:52;;;;;;;17.70;11.68;;;18.70;99.90;;;;;;6182109;23;20000;-80
2023/09/16 08:15:18;;;;;;;13.07;11.80;;;18.70;99.90;;;;;;6155815;23;20043;-80
2023/09/16 08:17:43;;;;;;;12.25;10.95;;;18.90;99.90;;;;;;6182811;23;20309;-80
2023/09/16 08:20:09;;;;;;;11.43;10.32;;;19.10;99.90;;;;;;6182230;23;20005;-80
2023/09/16 08:22:35;;;;;;;11.45;10.38;;;19.20;99.90;;;;;;6182776;23;20064;-81
2023/09/16 08:25:05;;;;;;;13.23;11.60;;;19.50;99.90;;;;;;6182253;23;20031;-81
2023/09/16 08:27:31;;;;;;;15.52;12.07;;;19.70;99.90;;;;;;6181658;23;20039;-80
2023/09/16 08:29:56;;;;;;;11.45;10.32;;;19.90;99.90;;;;;;6182312;23;20005;-80
2023/09/16 08:32:24;;;;;;;11.35;10.30;;;20.10;99.90;;;;;;6181773;23;20076;-77
2023/09/16 08:34:50;;;;;;;12.35;9.70;;;20.20;99.90;;;;;;6182509;23;20001;-80
2023/09/16 08:37:16;;;;;;;13.25;11.30;;;20.40;99.90;;;;;;6155412;23;20059;-79
2023/09/16 08:39:42;;;;;;;9.60;8.63;;;20.60;99.90;;;;;;6156314;23;20331;-80
2023/09/16 08:42:19;;;;;;;11.45;10.35;;;20.70;99.90;;;;;;6181258;23;20513;-76
2023/09/16 08:44:47;;;;;;;11.07;10.00;;;20.80;99.90;;;;;;6156306;23;20063;-75
2023/09/16 08:47:17;;;;;;;10.13;8.90;;;20.90;99.90;;;;;;6181707;23;20012;-81
2023/09/16 08:49:49;;;;;;;10.10;9.20;;;21.00;99.90;;;;;;6182230;23;20008;-80
2023/09/16 08:52:16;;;;;;;8.90;8.10;;;21.00;99.90;;;;;;6181698;23;20024;-81
2023/09/16 08:54:45;;;;;;;8.82;8.02;;;20.90;99.90;;;;;;6155673;23;20079;-81
2023/09/16 08:57:12;;;;;;;8.20;6.75;;;20.90;99.90;;;;;;6180604;23;20323;-81
2023/09/16 08:59:41;;;;;;;8.55;7.07;;;20.90;99.90;;;;;;6182531;23;20001;-81
2023/09/16 09:02:09;;;;;;;8.65;6.72;;;20.80;99.90;;;;;;6153860;23;20012;-80
2023/09/16 09:04:36;;;;;;;11.05;7.80;;;20.90;99.90;;;;;;6178762;23;20013;-80
2023/09/16 09:07:02;;;;;;;9.80;7.80;;;20.90;99.90;;;;;;6151389;23;20013;-81
2023/09/16 09:09:29;;;;;;;10.55;7.30;;;20.90;99.90;;;;;;6178366;23;20001;-79
2023/09/16 09:11:57;;;;;;;8.40;6.32;;;21.00;99.90;;;;;;6151024;23;20040;-80
2023/09/16 09:14:23;;;;;;;8.50;7.55;;;21.00;99.90;;;;;;6178249;23;20013;-80
2023/09/16 09:16:51;;;;;;;8.20;7.10;;;21.10;99.70;;;;;;6151911;23;20013;-80
2023/09/16 09:19:18;;;;;;;8.27;6.85;;;21.10;99.50;;;;;;6177833;23;20451;-80
2023/09/16 09:21:45;;;;;;;7.78;6.47;;;21.20;99.50;;;;;;6152141;23;20008;-80
2023/09/16 09:24:11;;;;;;;8.40;6.20;;;21.20;99.40;;;;;;6151212;23;20447;-80
2023/09/16 09:26:36;;;;;;;6.82;6.15;;;21.30;99.50;;;;;;6177517;23;20009;-83
2023/09/16 09:29:02;;;;;;;7.63;6.22;;;21.30;99.20;;;;;;6178537;23;20016;-80
2023/09/16 09:31:30;;;;;;;8.48;6.60;;;21.40;99.00;;;;;;6151531;23;20009;-81
2023/09/16 09:33:55;;;;;;;6.75;6.05;;;21.40;99.00;;;;;;6151720;23;20012;-80
2023/09/16 09:36:21;;;;;;;6.85;4.93;;;21.50;98.90;;;;;;6177885;23;20055;-80
2023/09/16 09:38:47;;;;;;;6.68;6.07;;;21.50;98.90;;;;;;6151311;23;20059;-79
2023/09/16 09:41:14;;;;;;;7.57;6.60;;;21.60;98.70;;;;;;6176062;23;19997;-80
2023/09/16 09:43:39;;;;;;;7.95;6.30;;;21.70;98.60;;;;;;6173198;23;20139;-81
2023/09/16 09:46:05;;;;;;;8.73;7.05;;;21.80;98.60;;;;;;6147619;23;20451;-80
2023/09/16 09:48:32;;;;;;;7.80;6.13;;;21.80;98.20;;;;;;6147481;23;20049;-80
2023/09/16 09:50:59;;;;;;;6.78;5.72;;;22.00;97.90;;;;;;6121857;23;20009;-80
2023/09/16 09:53:26;;;;;;;6.60;6.00;;;22.00;98.00;;;;;;6121508;23;20136;-80
2023/09/16 09:55:52;;;;;;;6.80;5.15;;;22.00;97.40;;;;;;6147818;23;20009;-80
2023/09/16 09:58:18;;;;;;;7.05;4.93;;;22.10;97.40;;;;;;6121170;23;20013;-80
2023/09/16 10:00:49;;;;;;;5.75;4.80;;;22.20;97.20;;;;;;6122179;23;20752;-81
2023/09/16 10:03:16;;;;;;;7.35;5.25;;;22.30;96.90;;;;;;6121194;23;20012;-81
2023/09/16 10:05:42;;;;;;;6.72;5.95;;;22.40;96.80;;;;;;6148014;23;20446;-80
2023/09/16 10:08:08;;;;;;;7.50;5.35;;;22.50;96.50;;;;;;6120928;23;20009;-80
2023/09/16 10:10:35;;;;;;;5.50;4.93;;;22.50;96.50;;;;;;6121617;23;20037;-80
2023/09/16 10:13:01;;;;;;;5.40;4.90;;;22.60;96.20;;;;;;6121608;23;20001;-80
2023/09/16 10:15:35;;;;;;;6.85;4.95;;;22.60;96.00;;;;;;6121618;23;20021;-80
2023/09/16 10:18:03;;;;;;;5.03;3.78;;;22.70;95.40;;;;;;6121585;23;20007;-80
2023/09/16 10:20:31;;;;;;;5.90;5.30;;;22.70;95.50;;;;;;6121783;23;20017;-79
2023/09/16 10:22:59;;;;;;;7.38;5.28;;;22.80;95.40;;;;;;6147677;23;20001;-85
2023/09/16 10:25:28;;;;;;;5.55;4.38;;;22.80;94.90;;;;;;6148533;23;20028;-84
2023/09/16 10:27:57;;;;;;;6.00;4.32;;;22.90;94.40;;;;;;6121804;23;20502;-78
2023/09/16 10:30:27;;;;;;;6.70;5.13;;;22.90;94.20;;;;;;6121431;23;20009;-79
2023/09/16 10:32:53;;;;;;;5.55;4.40;;;23.00;94.20;;;;;;6121774;23;20388;-79
2023/09/16 10:35:22;;;;;;;8.27;3.78;;;23.00;94.00;;;;;;6122820;23;20016;-79
2023/09/16 10:37:52;;;;;;;7.93;3.90;;;23.10;93.60;;;;;;6124458;23;20001;-80
2023/09/16 10:40:19;;;;;;;3.78;3.38;;;23.10;93.20;;;;;;6122432;23;20009;-79
2023/09/16 10:42:46;;;;;;;5.25;3.88;;;23.10;93.20;;;;;;6150885;23;20006;-81
2023/09/16 10:45:14;;;;;;;4.05;3.40;;;23.20;92.90;;;;;;6150590;23;20327;-81
2023/09/16 10:47:40;;;;;;;6.45;3.40;;;23.20;93.00;;;;;;6125339;23;20001;-79
2023/09/16 10:50:06;;;;;;;3.65;3.22;;;23.20;92.60;;;;;;6124340;23;19997;-81
2023/09/16 10:52:51;;;;;;;5.03;3.10;;;23.30;91.80;;;;;;6150244;23;20001;-79
2023/09/16 10:55:33;;;;;;;3.17;2.75;;;23.30;91.90;;;;;;6124516;23;20009;-80
2023/09/16 10:58:15;;;;;;;6.93;3.00;;;23.40;91.60;;;;;;6125220;23;20005;-75
2023/09/16 11:00:50;;;;;;;3.90;2.60;;;23.40;91.30;;;;;;6125240;23;20005;-79
2023/09/16 11:03:16;;;;;;;3.53;2.28;;;23.50;91.30;;;;;;6150350;23;20006;-80
2023/09/16 11:05:42;;;;;;;2.70;2.25;;;23.60;91.20;;;;;;6125447;23;20002;-80
2023/09/16 11:08:08;;;;;;;3.63;2.92;;;23.60;91.10;;;;;;6124243;23;20029;-80
2023/09/16 11:10:34;;;;;;;3.40;2.33;;;23.60;90.90;;;;;;6125549;23;19997;-80
2023/09/16 11:13:01;;;;;;;5.07;2.67;;;23.60;90.80;;;;;;6150752;23;20002;-80
2023/09/16 11:15:34;;;;;;;4.82;2.45;;;23.60;90.80;;;;;;6151780;23;20006;-80
2023/09/16 11:18:04;;;;;;;3.50;3.00;;;23.60;90.40;;;;;;6150910;23;20427;-81
2023/09/16 11:20:33;;;;;;;5.05;3.15;;;23.70;90.50;;;;;;6125187;23;20009;-82
2023/09/16 11:23:03;;;;;;;5.53;3.15;;;23.60;90.60;;;;;;6124536;23;20002;-81
2023/09/16 11:25:32;;;;;;;3.17;2.88;;;23.70;90.40;;;;;;6125307;23;20009;-81
2023/09/16 11:27:58;;;;;;;4.25;2.85;;;23.70;90.40;;;;;;6127091;23;20005;-80
2023/09/16 11:30:23;;;;;;;3.72;2.80;;;23.70;90.40;;;;;;6153381;23;20036;-80
2023/09/16 11:32:55;;;;;;;3.33;2.47;;;23.80;90.20;;;;;;6127105;23;20061;-81
2023/09/16 11:35:21;;;;;;;2.63;2.25;;;23.80;90.00;;;;;;6152222;23;20029;-80
2023/09/16 11:37:46;;;;;;;2.95;2.50;;;23.80;90.00;;;;;;6127250;23;20009;-81
2023/09/16 11:40:13;;;;;;;4.72;2.80;;;23.80;90.10;;;;;;6152730;23;20009;-81
2023/09/16 11:42:39;;;;;;;3.47;2.30;;;23.90;90.00;;;;;;6126972;23;20009;-80
2023/09/16 11:45:05;;;;;;;3.67;2.72;;;23.90;90.10;;;;;;6152106;23;20071;-81
2023/09/16 11:47:32;;;;;;;2.72;2.53;;;23.90;90.20;;;;;;6126893;23;20031;-82
2023/09/16 11:49:58;;;;;;;3.00;2.70;;;23.90;90.20;;;;;;6152684;23;20432;-82
2023/09/16 11:52:24;;;;;;;4.18;2.58;;;24.00;90.00;;;;;;6126908;23;20016;-81
2023/09/16 11:54:51;;;;;;;3.38;2.97;;;24.00;90.00;;;;;;6127367;23;20029;-82
2023/09/16 11:57:17;;;;;;;4.43;3.13;;;24.00;90.20;;;;;;6126468;23;20013;-80
2023/09/16 11:59:44;;;;;;;4.05;3.17;;;23.90;90.30;;;;;;6127138;23;20005;-81
2023/09/16 12:02:10;;;;;;;5.50;4.70;;;23.90;90.60;;;;;;6152602;23;20008;-80
2023/09/16 12:04:36;;;;;;;5.93;4.40;;;23.90;91.10;;;;;;6152568;23;20005;-81
2023/09/16 12:07:04;;;;;;;5.13;4.47;;;23.80;91.10;;;;;;6126488;23;20321;-80
2023/09/16 12:09:30;;;;;;;6.88;5.22;;;23.80;91.30;;;;;;6125795;23;20019;-80
2023/09/16 12:11:56;;;;;;;4.90;4.40;;;23.80;91.30;;;;;;6153148;23;20635;-80
2023/09/16 12:14:22;;;;;;;6.97;4.85;;;23.80;91.30;;;;;;6151905;23;20367;-81
2023/09/16 12:16:52;;;;;;;6.93;4.68;;;23.80;91.40;;;;;;6152364;23;20064;-81
2023/09/16 12:19:17;;;;;;;5.70;3.85;;;23.80;91.50;;;;;;6151572;23;20004;-81
2023/09/16 12:21:48;;;;;;;6.35;4.28;;;23.80;91.60;;;;;;6126116;23;20010;-81
2023/09/16 12:24:21;;;;;;;6.15;5.25;;;23.90;91.60;;;;;;6152125;23;20305;-81
2023/09/16 12:26:48;;;;;;;5.53;4.80;;;23.90;91.60;;;;;;6126899;23;20085;-79
2023/09/16 12:29:14;;;;;;;5.90;4.63;;;23.90;91.70;;;;;;6151791;23;20002;-78
2023/09/16 12:31:39;;;;;;;3.75;3.40;;;24.00;91.60;;;;;;6126428;23;20019;-79
2023/09/16 12:34:05;;;;;;;4.65;4.25;;;24.00;91.70;;;;;;6125325;23;20029;-79